Time;durP1;ratioP1;P1;durP2;ratioP2;P2;SDS_P1;SDS_P2;PMS_P1;PMS_P2;Temp;Humidity;BMP_temperature;BMP_pressure;BME280_temperature;BME280_humidity;BME280_pressure;Samples;Min_cycle;Max_cycle;Signal;HPM_P1;HPM_P2
2021/07/30 00:00:48;;;;;;;;;;;;;;;;;;3570226;40;20330;-72
2021/07/30 00:03:14;;;;;;;;;;;;;;;;;;3571264;40;19933;-71
2021/07/30 00:05:40;;;;;;;;;;;;;;;;;;3560729;40;19925;-72
2021/07/30 00:08:06;;;;;;;;;;;;;;;;;;3568978;40;19925;-72
2021/07/30 00:10:32;;;;;;;;;;;;;;;;;;3562305;40;19937;-71
2021/07/30 00:12:58;;;;;;;;;;;;;;;;;;3570379;40;19925;-72
2021/07/30 00:15:23;;;;;;;;;;;;;;;;;;3574220;40;19948;-73
2021/07/30 00:17:51;;;;;;;;;;;;;;;;;;3570583;40;19948;-72
2021/07/30 00:20:17;;;;;;;;;;;;;;;;;;3567838;40;19952;-72
2021/07/30 00:22:42;;;;;;;;;;;;;;;;;;3562753;40;19925;-72
2021/07/30 00:25:08;;;;;;;;;;;;;;;;;;3567106;40;20250;-72
2021/07/30 00:27:34;;;;;;;;;;;;;;;;;;3561726;40;19925;-72
2021/07/30 00:30:00;;;;;;;;;;;;;;;;;;3570766;40;19925;-71
2021/07/30 00:32:26;;;;;;;;;;;;;;;;;;3570796;40;19925;-72
2021/07/30 00:34:53;;;;;;;;;;;;;;;;;;3569346;40;19929;-72
2021/07/30 00:37:19;;;;;;;;;;;;;;;;;;3564186;40;19933;-72
2021/07/30 00:39:45;;;;;;;;;;;;;;;;;;3569338;40;20186;-72
2021/07/30 00:42:11;;;;;;;;;;;;;;;;;;3574302;40;19932;-71
2021/07/30 00:44:37;;;;;;;;;;;;;;;;;;3574198;40;19972;-71
2021/07/30 00:47:03;;;;;;;;;;;;;;;;;;3573489;40;19932;-72
2021/07/30 00:49:28;;;;;;;;;;;;;;;;;;3574092;40;20277;-71
2021/07/30 00:51:54;;;;;;;;;;;;;;;;;;3577553;40;19969;-72
2021/07/30 00:54:22;;;;;;;;;;;;;;;;;;3571166;40;20164;-72
2021/07/30 00:56:48;;;;;;;;;;;;;;;;;;3573722;40;19939;-72
2021/07/30 00:59:14;;;;;;;;;;;;;;;;;;3562691;40;19931;-72
2021/07/30 01:04:08;;;;;;;;;;;;;;;;;;3566020;40;19933;-68
2021/07/30 01:06:34;;;;;;;;;;;;;;;;;;3572667;40;19935;-68
2021/07/30 01:09:00;;;;;;;;;;;;;;;;;;3571904;40;19936;-68
2021/07/30 01:11:26;;;;;;;;;;;;;;;;;;3570390;40;19929;-68
2021/07/30 01:13:52;;;;;;;;;;;;;;;;;;3572761;40;19969;-67
2021/07/30 01:16:18;;;;;;;;;;;;;;;;;;3573062;40;19936;-68
2021/07/30 01:18:44;;;;;;;;;;;;;;;;;;3576783;40;19962;-67
2021/07/30 01:21:10;;;;;;;;;;;;;;;;;;3563598;40;20296;-67
2021/07/30 01:23:35;;;;;;;;;;;;;;;;;;3575079;40;19929;-68
2021/07/30 01:26:01;;;;;;;;;;;;;;;;;;3570443;40;19937;-68
2021/07/30 01:28:27;;;;;;;;;;;;;;;;;;3568350;40;20282;-68
2021/07/30 01:30:53;;;;;;;;;;;;;;;;;;3566981;40;19969;-68
2021/07/30 01:33:19;;;;;;;;;;;;;;;;;;3564976;40;19979;-68
2021/07/30 01:35:45;;;;;;;;;;;;;;;;;;3571524;40;19935;-68
2021/07/30 01:38:11;;;;;;;;;;;;;;;;;;3571082;40;19929;-67
2021/07/30 01:40:37;;;;;;;;;;;;;;;;;;3567156;40;19965;-67
2021/07/30 01:43:03;;;;;;;;;;;;;;;;;;3577576;40;20205;-67
2021/07/30 01:45:29;;;;;;;;;;;;;;;;;;3571205;40;19929;-68
2021/07/30 01:47:55;;;;;;;;;;;;;;;;;;3566025;40;20288;-68
2021/07/30 01:50:20;;;;;;;;;;;;;;;;;;3575810;40;20023;-68
2021/07/30 01:52:46;;;;;;;;;;;;;;;;;;3569560;40;19940;-67
2021/07/30 01:55:12;;;;;;;;;;;;;;;;;;3570926;40;19936;-68
2021/07/30 01:57:38;;;;;;;;;;;;;;;;;;3563225;40;19936;-68
2021/07/30 02:00:04;;;;;;;;;;;;;;;;;;3570778;40;19929;-67
2021/07/30 02:02:33;;;;;;;;;;;;;;;;;;3571392;40;19936;-68
2021/07/30 02:04:59;;;;;;;;;;;;;;;;;;3568784;40;19936;-67
2021/07/30 02:07:24;;;;;;;;;;;;;;;;;;3569519;40;19929;-68
2021/07/30 02:09:52;;;;;;;;;;;;;;;;;;3566510;40;20076;-68
2021/07/30 02:12:18;;;;;;;;;;;;;;;;;;3569395;40;19929;-66
2021/07/30 02:14:44;;;;;;;;;;;;;;;;;;3569382;40;19929;-65
2021/07/30 02:17:10;;;;;;;;;;;;;;;;;;3569637;40;19929;-68
2021/07/30 02:19:36;;;;;;;;;;;;;;;;;;3567981;40;19955;-68
2021/07/30 02:22:02;;;;;;;;;;;;;;;;;;3569153;40;20274;-67
2021/07/30 02:24:28;;;;;;;;;;;;;;;;;;3569251;40;19983;-67
2021/07/30 02:26:54;;;;;;;;;;;;;;;;;;3567486;40;20272;-67
2021/07/30 02:29:20;;;;;;;;;;;;;;;;;;3558351;40;20282;-67
2021/07/30 02:31:48;;;;;;;;;;;;;;;;;;3570591;40;19929;-67
2021/07/30 02:34:14;;;;;;;;;;;;;;;;;;3570693;40;19930;-67
2021/07/30 02:36:40;;;;;;;;;;;;;;;;;;3570083;40;19973;-67
2021/07/30 02:39:06;;;;;;;;;;;;;;;;;;3568639;40;20297;-67
2021/07/30 02:41:31;;;;;;;;;;;;;;;;;;3566309;40;19936;-67
2021/07/30 02:43:57;;;;;;;;;;;;;;;;;;3570681;40;19936;-67
2021/07/30 02:46:23;;;;;;;;;;;;;;;;;;3570654;40;20175;-67
2021/07/30 02:48:49;;;;;;;;;;;;;;;;;;3564898;40;20014;-67
2021/07/30 02:51:15;;;;;;;;;;;;;;;;;;3570635;40;19936;-67
2021/07/30 02:53:41;;;;;;;;;;;;;;;;;;3569010;40;20278;-68
2021/07/30 02:56:07;;;;;;;;;;;;;;;;;;3570565;40;20312;-67
2021/07/30 02:58:33;;;;;;;;;;;;;;;;;;3567908;40;19936;-67
2021/07/30 03:00:59;;;;;;;;;;;;;;;;;;3568610;40;19940;-68
2021/07/30 03:03:25;;;;;;;;;;;;;;;;;;3566617;40;19933;-67
2021/07/30 03:05:51;;;;;;;;;;;;;;;;;;3566088;40;19929;-68
2021/07/30 03:08:17;;;;;;;;;;;;;;;;;;3568401;40;19959;-67
2021/07/30 03:10:43;;;;;;;;;;;;;;;;;;3567850;40;20267;-67
2021/07/30 03:13:09;;;;;;;;;;;;;;;;;;3570363;40;19929;-67
2021/07/30 03:15:35;;;;;;;;;;;;;;;;;;3569065;40;19937;-67
2021/07/30 03:18:01;;;;;;;;;;;;;;;;;;3569570;40;19961;-67
2021/07/30 03:20:27;;;;;;;;;;;;;;;;;;3570523;40;19935;-67
2021/07/30 03:22:52;;;;;;;;;;;;;;;;;;3569269;40;20175;-67
2021/07/30 03:25:18;;;;;;;;;;;;;;;;;;3570457;40;19929;-67
2021/07/30 03:27:44;;;;;;;;;;;;;;;;;;3568728;40;19929;-67
2021/07/30 03:30:10;;;;;;;;;;;;;;;;;;3568424;40;19929;-67
2021/07/30 03:32:36;;;;;;;;;;;;;;;;;;3568783;40;19964;-67
2021/07/30 03:35:02;;;;;;;;;;;;;;;;;;3562629;40;19936;-68
2021/07/30 03:37:28;;;;;;;;;;;;;;;;;;3560287;40;20256;-67
2021/07/30 03:39:54;;;;;;;;;;;;;;;;;;3570313;40;19960;-68
2021/07/30 03:42:20;;;;;;;;;;;;;;;;;;3568872;40;19940;-68
2021/07/30 03:44:46;;;;;;;;;;;;;;;;;;3568907;40;19936;-67
2021/07/30 03:47:12;;;;;;;;;;;;;;;;;;3563492;40;20015;-67
2021/07/30 03:49:38;;;;;;;;;;;;;;;;;;3569463;40;19929;-67
2021/07/30 03:52:04;;;;;;;;;;;;;;;;;;3567912;40;19941;-68
2021/07/30 03:54:30;;;;;;;;;;;;;;;;;;3566606;40;19937;-68
2021/07/30 03:56:56;;;;;;;;;;;;;;;;;;3569765;40;20197;-68
2021/07/30 03:59:22;;;;;;;;;;;;;;;;;;3568295;40;19956;-67
2021/07/30 04:01:48;;;;;;;;;;;;;;;;;;3570150;40;19981;-67
2021/07/30 04:04:15;;;;;;;;;;;22.50;99.90;;;;;;3570067;40;19933;-68
2021/07/30 04:06:43;;;;;;;;;;;22.40;99.90;;;;;;3569187;40;19937;-67
2021/07/30 04:09:10;;;;;;;;;;;22.40;99.90;;;;;;3568398;40;19959;-67
2021/07/30 04:11:35;;;;;;;;;;;22.30;99.90;;;;;;3569717;40;19966;-68
2021/07/30 04:14:01;;;;;;;;;;;22.30;99.90;;;;;;3569455;40;19933;-68
2021/07/30 04:16:28;;;;;;;;;;;22.30;99.90;;;;;;3570150;40;19945;-68
2021/07/30 04:18:53;;;;;;;;;;;22.30;99.90;;;;;;3569889;40;19949;-67
2021/07/30 04:21:20;;;;;;;;;;;22.30;99.90;;;;;;3568904;40;19933;-68
2021/07/30 04:23:46;;;;;;;;;;;;;;;;;;3570223;40;19941;-68
2021/07/30 04:26:12;;;;;;;;;;;;;;;;;;3567092;40;19936;-67
2021/07/30 04:28:38;;;;;;;;;;;;;;;;;;3566989;40;19998;-68
2021/07/30 04:31:04;;;;;;;;;;;;;;;;;;3570310;40;19929;-67
2021/07/30 04:33:30;;;;;;;;;;;;;;;;;;3568980;40;20186;-67
2021/07/30 04:35:56;;;;;;;;;;;;;;;;;;3569618;40;19936;-68
2021/07/30 04:38:22;;;;;;;;;;;;;;;;;;3568946;40;20284;-68
2021/07/30 04:40:48;;;;;;;;;;;;;;;;;;3570146;40;20007;-68
2021/07/30 04:43:14;;;;;;;;;;;;;;;;;;3569602;40;19955;-67
2021/07/30 04:45:40;;;;;;;;;;;;;;;;;;3569973;40;19929;-67
2021/07/30 04:48:06;;;;;;;;;;;;;;;;;;3565068;40;19941;-67
2021/07/30 04:50:32;;;;;;;;;;;;;;;;;;3565471;40;19937;-67
2021/07/30 04:52:57;;;;;;;;;;;;;;;;;;3568018;40;19941;-67
2021/07/30 04:55:23;;;;;;;;;;;;;;;;;;3566940;40;19930;-67
2021/07/30 04:57:51;;;;;;;;;;;;;;;;;;3563269;40;19930;-66
2021/07/30 05:00:16;;;;;;;;;;;;;;;;;;3571493;40;19929;-67
2021/07/30 05:02:42;;;;;;;;;;;;;;;;;;3564560;40;19929;-67
2021/07/30 05:05:08;;;;;;;;;;;;;;;;;;3564419;40;19929;-67
2021/07/30 05:07:34;;;;;;;;;;;;;;;;;;3569010;40;19969;-66
2021/07/30 05:10:00;;;;;;;;;;;;;;;;;;3567022;40;19943;-67
2021/07/30 05:12:26;;;;;;;;;;;;;;;;;;3568842;40;19936;-68
2021/07/30 05:14:52;;;;;;;;;;;;;;;;;;3564987;40;20317;-67
2021/07/30 05:17:20;;;;;;;;;;;;;;;;;;3568790;40;19929;-67
2021/07/30 05:19:46;;;;;;;;;;;;;;;;;;3568996;40;19936;-67
2021/07/30 05:22:12;;;;;;;;;;;;;;;;;;3568913;40;19941;-67
2021/07/30 05:24:38;;;;;;;;;;;;;;;;;;3559518;40;20293;-67
2021/07/30 05:27:04;;;;;;;;;;;;;;;;;;3571066;40;20011;-67
2021/07/30 05:29:30;;;;;;;;;;;;;;;;;;3568544;40;19929;-67
2021/07/30 05:31:56;;;;;;;;;;;;;;;;;;3568130;40;20010;-67
2021/07/30 05:34:22;;;;;;;;;;;;;;;;;;3567560;40;19936;-66
2021/07/30 05:36:48;;;;;;;;;;;;;;;;;;3569039;40;19929;-67
2021/07/30 05:39:14;;;;;;;;;;;;;;;;;;3569429;40;19929;-67
2021/07/30 05:41:40;;;;;;;;;;;;;;;;;;3569392;40;19929;-67
2021/07/30 05:44:06;;;;;;;;;;;;;;;;;;3569838;40;19936;-68
2021/07/30 05:46:32;;;;;;;;;;;;;;;;;;3567323;40;19940;-68
2021/07/30 05:48:59;;;;;;;;;;;;;;;;;;3567047;40;19937;-67
2021/07/30 05:51:25;;;;;;;;;;;;;;;;;;3567825;40;20010;-68
2021/07/30 05:53:51;;;;;;;;;;;;;;;;;;3562083;40;19941;-68
2021/07/30 05:56:17;;;;;;;;;;;;;;;;;;3569130;40;19929;-67
2021/07/30 05:58:43;;;;;;;;;;;;;;;;;;3567423;40;19937;-68
2021/07/30 06:01:08;;;;;;;;;;;;;;;;;;3566339;40;19929;-68
2021/07/30 06:03:34;;;;;;;;;;;;;;;;;;3569423;40;19933;-67
2021/07/30 06:06:00;;;;;;;;;;;;;;;;;;3570235;40;19929;-68
2021/07/30 06:08:26;;;;;;;;;;;;;;;;;;3569100;40;20271;-68
2021/07/30 06:10:52;;;;;;;;;;;;;;;;;;3568036;40;19929;-68
2021/07/30 06:13:18;;;;;;;;;;;;;;;;;;3569430;40;19929;-68
2021/07/30 06:15:44;;;;;;;;;;;;;;;;;;3555946;40;20270;-68
2021/07/30 06:18:10;;;;;;;;;;;;;;;;;;3565141;40;20190;-68
2021/07/30 06:20:36;;;;;;;;;;;;;;;;;;3566646;40;19929;-68
2021/07/30 06:23:02;;;;;;;;;;;;;;;;;;3567473;40;19960;-68
2021/07/30 06:25:28;;;;;;;;;;;;;;;;;;3567893;40;19929;-68
2021/07/30 06:27:54;;;;;;;;;;;;;;;;;;3568300;40;19952;-67
2021/07/30 06:30:19;;;;;;;;;;;;;;;;;;3566811;40;19932;-68
2021/07/30 06:32:45;;;;;;;;;;;;;;;;;;3566907;40;19965;-68
2021/07/30 06:35:14;;;;;;;;;;;;;;;;;;3563337;40;19956;-68
2021/07/30 06:37:40;;;;;;;;;;;;;;;;;;3568605;40;19983;-68
2021/07/30 06:40:06;;;;;;;;;;;;;;;;;;3564806;40;19937;-68
2021/07/30 06:42:32;;;;;;;;;;;;;;;;;;3560703;40;19993;-68
2021/07/30 06:44:58;;;;;;;;;;;;;;;;;;3566807;40;19929;-70
2021/07/30 06:47:25;;;;;;;;;;;;;;;;;;3562301;40;20191;-68
2021/07/30 06:49:50;;;;;;;;;;;;;;;;;;3567128;40;19936;-68
2021/07/30 06:52:16;;;;;;;;;;;;;;;;;;3568338;40;19941;-68
2021/07/30 06:54:43;;;;;;;;;;;;;;;;;;3567691;40;20019;-67
2021/07/30 06:57:09;;;;;;;;;;;;;;;;;;3567671;40;19949;-68
2021/07/30 06:59:35;;;;;;;;;;;;;;;;;;3559813;40;20038;-69
2021/07/30 07:02:01;;;;;;;;;;;;;;;;;;3570115;40;19936;-68
2021/07/30 07:04:27;;;;;;;;;;;;;;;;;;3567632;40;19989;-69
2021/07/30 07:06:53;;;;;;;;;;;;;;;;;;3567717;40;20182;-68
2021/07/30 07:09:19;;;;;;;;;;;;;;;;;;3568550;40;19941;-68
2021/07/30 07:11:45;;;;;;;;;;;;;;;;;;3568258;40;19933;-68
2021/07/30 07:14:11;;;;;;;;;;;;;;;;;;3567047;40;19933;-68
2021/07/30 07:16:37;;;;;;;;;;;;;;;;;;3569259;40;19944;-69
2021/07/30 07:19:04;;;;;;;;;;;;;;;;;;3560471;40;19937;-68
2021/07/30 07:21:30;;;;;;;;;;;;;;;;;;3570761;40;19939;-68
2021/07/30 07:23:56;;;;;;;;;;;;;;;;;;3570611;40;19933;-68
2021/07/30 07:26:22;;;;;;;;;;;;;;;;;;3568421;40;20224;-68
2021/07/30 07:28:48;;;;;;;;;;;;;;;;;;3554167;40;19949;-67
2021/07/30 07:31:14;;;;;;;;;;;;;;;;;;3565919;40;19945;-69
2021/07/30 07:33:40;;;;;;;;;;;;;;;;;;3563011;40;20227;-69
2021/07/30 07:36:06;;;;;;;;;;;;;;;;;;3564987;40;19959;-68
2021/07/30 07:38:32;;;;;;;;;;;;;;;;;;3564961;40;20290;-68
2021/07/30 07:40:58;;;;;;;;;;;;;;;;;;3565552;40;20384;-69
2021/07/30 07:43:23;;;;;;;;;;;;;;;;;;3565880;40;19933;-69
2021/07/30 07:45:49;;;;;;;;;;;;;;;;;;3564019;40;19939;-68
2021/07/30 07:48:15;;;;;;;;;;;;;;;;;;3563117;40;19941;-68
2021/07/30 07:50:41;;;;;;;;;;;;;;;;;;3565815;40;19933;-69
2021/07/30 07:53:07;;;;;;;;;;;;;;;;;;3565522;40;19946;-68
2021/07/30 07:55:33;;;;;;;;;;;;;;;;;;3566604;40;19945;-68
2021/07/30 07:57:59;;;;;;;;;;;;;;;;;;3567119;40;19932;-69
2021/07/30 08:00:25;;;;;;;;;;;;;;;;;;3559337;40;20287;-69
2021/07/30 08:02:51;;;;;;;;;;;;;;;;;;3565289;40;19933;-68
2021/07/30 08:05:17;;;;;;;;;;;;;;;;;;3564748;40;19941;-68
2021/07/30 08:07:43;;;;;;;;;;;;;;;;;;3564044;40;20372;-68
2021/07/30 08:10:09;;;;;;;;;;;;;;;;;;3565164;40;19937;-69
2021/07/30 08:12:35;;;;;;;;;;;;;;;;;;3564994;40;19933;-68
2021/07/30 08:15:01;;;;;;;;;;;;;;;;;;3562944;40;19988;-68
2021/07/30 08:17:26;;;;;;;;;;;;;;;;;;3565362;40;19933;-69
2021/07/30 08:19:52;;;;;;;;;;;;;;;;;;3564787;40;19940;-68
2021/07/30 08:22:18;;;;;;;;;;;;;;;;;;3564365;40;19950;-68
2021/07/30 08:24:45;;;;;;;;;;;22.30;99.90;;;;;;3565214;40;20206;-69
2021/07/30 08:27:14;;;;;;;;;;;;;;;;;;3564360;40;20035;-69
2021/07/30 08:29:39;;;;;;;;;;;;;;;;;;3562734;40;20205;-69
2021/07/30 08:32:05;;;;;;;;;;;;;;;;;;3565334;40;19940;-69
2021/07/30 08:34:31;;;;;;;;;;;;;;;;;;3565043;40;19933;-69
2021/07/30 08:36:57;;;;;;;;;;;;;;;;;;3563825;40;19941;-70
2021/07/30 08:39:23;;;;;;;;;;;;;;;;;;3565586;40;20304;-69
2021/07/30 08:41:49;;;;;;;;;;;;;;;;;;3565695;40;19937;-69
2021/07/30 08:44:15;;;;;;;;;;;;;;;;;;3565599;40;20286;-69
2021/07/30 08:46:41;;;;;;;;;;;;;;;;;;3563676;40;19940;-69
2021/07/30 08:49:08;;;;;;;;;;;;;;;;;;3562819;40;19948;-69
2021/07/30 08:51:34;;;;;;;;;;;;;;;;;;3564297;40;20285;-68
2021/07/30 08:54:00;;;;;;;;;;;;;;;;;;3562076;40;19940;-69
2021/07/30 08:56:26;;;;;;;;;;;;;;;;;;3563224;40;19933;-68
2021/07/30 08:58:52;;;;;;;;;;;;;;;;;;3564247;40;19945;-69
2021/07/30 09:01:18;;;;;;;;;;;;;;;;;;3564128;40;19937;-68
2021/07/30 09:03:44;;;;;;;;;;;;;;;;;;3564903;40;19949;-68
2021/07/30 09:06:10;;;;;;;;;;;;;;;;;;3564544;40;19939;-69
2021/07/30 09:08:36;;;;;;;;;;;;;;;;;;3564573;40;20023;-69
2021/07/30 09:11:02;;;;;;;;;;;;;;;;;;3564183;40;19941;-69
2021/07/30 09:13:30;;;;;;;;;;;24.80;99.90;;;;;;3564190;40;20464;-69
2021/07/30 09:16:00;;;;;;;;;;;24.30;99.90;;;;;;3570306;40;20020;-68
2021/07/30 09:18:26;;;;;;;;;;;24.30;99.90;;;;;;3564989;40;19934;-68
2021/07/30 09:20:53;;;;;;;;;;;24.30;99.90;;;;;;3564708;40;19938;-68
2021/07/30 09:23:18;;;;;;;;;;;24.20;99.90;;;;;;3565855;40;19933;-68
2021/07/30 09:25:44;;;;;;;;;;;24.30;99.90;;;;;;3564307;40;19940;-68
2021/07/30 09:28:10;;;;;;;;;;;24.30;99.90;;;;;;3564502;40;19995;-68
2021/07/30 09:30:37;;;;;;;;;;;24.40;99.90;;;;;;3565334;40;19933;-68
2021/07/30 09:33:03;;;;;;;;;;;24.50;99.90;;;;;;3563715;40;20097;-68
2021/07/30 09:35:29;;;;;;;;;;;24.70;99.90;;;;;;3558204;40;20316;-68
2021/07/30 09:38:14;;;;;;;;;;;24.80;99.90;;;;;;3564756;40;20970;-68
2021/07/30 09:40:40;;;;;;;;;;;;;;;;;;3563640;40;20028;-68
2021/07/30 09:43:06;;;;;;;;;;;;;;;;;;3562951;40;19944;-68
2021/07/30 09:45:32;;;;;;;;;;;;;;;;;;3563652;40;19933;-68
2021/07/30 09:47:58;;;;;;;;;;;;;;;;;;3563358;40;19988;-68
2021/07/30 09:50:24;;;;;;;;;;;;;;;;;;3560944;40;19933;-68
2021/07/30 09:52:52;;;;;;;;;;;24.90;99.90;;;;;;3564349;40;19929;-68
2021/07/30 09:55:20;;;;;;;;;;;24.70;99.90;;;;;;3562252;40;19941;-68
2021/07/30 09:57:46;;;;;;;;;;;24.70;99.90;;;;;;3564086;40;20007;-68
2021/07/30 10:00:15;;;;;;;;;;;;;;;;;;3563107;40;19934;-68
2021/07/30 10:02:41;;;;;;;;;;;;;;;;;;3562197;40;19969;-69
2021/07/30 10:05:07;;;;;;;;;;;;;;;;;;3564112;40;19941;-69
2021/07/30 10:07:33;;;;;;;;;;;;;;;;;;3562152;40;20264;-69
2021/07/30 10:12:25;;;;;;;;;;;;;;;;;;3564053;40;20320;-68
2021/07/30 10:14:51;;;;;;;;;;;;;;;;;;3563036;40;19941;-69
2021/07/30 10:17:17;;;;;;;;;;;;;;;;;;3563718;40;20275;-68
2021/07/30 10:19:43;;;;;;;;;;;;;;;;;;3562440;40;20408;-69
2021/07/30 10:22:09;;;;;;;;;;;;;;;;;;3563244;40;20018;-69
2021/07/30 10:24:35;;;;;;;;;;;;;;;;;;3563649;40;19934;-69
2021/07/30 10:27:01;;;;;;;;;;;;;;;;;;3564008;40;19936;-69
2021/07/30 10:29:26;;;;;;;;;;;;;;;;;;3563190;40;19951;-69
2021/07/30 10:31:52;;;;;;;;;;;;;;;;;;3563057;40;19942;-69
2021/07/30 10:34:18;;;;;;;;;;;;;;;;;;3564208;40;20269;-68
2021/07/30 10:36:44;;;;;;;;;;;;;;;;;;3564396;40;19937;-68
2021/07/30 10:39:15;;;;;;;;;;;;;;;;;;3564244;40;19929;-68
2021/07/30 10:41:41;;;;;;;;;;;;;;;;;;3564750;40;20301;-69
2021/07/30 10:44:07;;;;;;;;;;;;;;;;;;3561801;40;19965;-68
2021/07/30 10:46:33;;;;;;;;;;;;;;;;;;3564279;40;19983;-68
2021/07/30 10:48:59;;;;;;;;;;;;;;;;;;3562608;40;19935;-68
2021/07/30 10:51:25;;;;;;;;;;;;;;;;;;3568424;40;19933;-68
2021/07/30 10:53:51;;;;;;;;;;;;;;;;;;3566019;40;19929;-68
2021/07/30 10:56:17;;;;;;;;;;;;;;;;;;3564985;40;19944;-68
2021/07/30 10:58:43;;;;;;;;;;;;;;;;;;3568155;40;19985;-68
2021/07/30 11:01:09;;;;;;;;;;;;;;;;;;3569538;40;20369;-68
2021/07/30 11:03:35;;;;;;;;;;;;;;;;;;3569142;40;19933;-69
2021/07/30 11:06:01;;;;;;;;;;;;;;;;;;3560916;40;19938;-68
2021/07/30 11:08:27;;;;;;;;;;;;;;;;;;3567478;40;20312;-68
2021/07/30 11:10:53;;;;;;;;;;;;;;;;;;3561316;40;19929;-68
2021/07/30 11:13:18;;;;;;;;;;;;;;;;;;3569527;40;19933;-68
2021/07/30 11:15:44;;;;;;;;;;;;;;;;;;3570591;40;19929;-68
2021/07/30 11:18:10;;;;;;;;;;;;;;;;;;3570141;40;19933;-69
2021/07/30 11:20:36;;;;;;;;;;;;;;;;;;3569681;40;19989;-69
2021/07/30 11:23:02;;;;;;;;;;;;;;;;;;3566758;40;19929;-69
2021/07/30 11:25:28;;;;;;;;;;;;;;;;;;3563316;40;20182;-68
2021/07/30 11:27:56;;;;;;;;;;;;;;;;;;3565384;40;19977;-68
2021/07/30 11:30:22;;;;;;;;;;;;;;;;;;3565171;40;20023;-68
2021/07/30 11:32:48;;;;;;;;;;;;;;;;;;3564975;40;19941;-69
2021/07/30 11:35:14;;;;;;;;;;;;;;;;;;3563219;40;19959;-68
2021/07/30 11:37:40;;;;;;;;;;;;;;;;;;3565620;40;19929;-68
2021/07/30 11:40:06;;;;;;;;;;;;;;;;;;3564779;40;20030;-69
2021/07/30 11:42:37;;;;;;;;;;;;;;;;;;3564951;40;20011;-68
2021/07/30 11:45:16;;;;;;;;;;;;;;;;;;3565339;40;20023;-68
2021/07/30 11:47:43;;;;;;;;;;;;;;;;;;3570558;40;19936;-68
2021/07/30 11:50:09;;;;;;;;;;;;;;;;;;3567023;40;19936;-69
2021/07/30 11:52:37;;;;;;;;;;;;;;;;;;3560053;40;20190;-68
2021/07/30 11:55:03;;;;;;;;;;;;;;;;;;3567766;40;20185;-69
2021/07/30 11:57:29;;;;;;;;;;;;;;;;;;3570155;40;19929;-70
2021/07/30 11:59:55;;;;;;;;;;;;;;;;;;3570380;40;19941;-68
2021/07/30 12:02:23;;;;;;;;;;;27.90;99.90;;;;;;3564460;40;19925;-68
2021/07/30 12:04:50;;;;;;;;;;;;;;;;;;3568462;40;19945;-69
2021/07/30 12:07:15;;;;;;;;;;;;;;;;;;3565997;40;19929;-69
2021/07/30 12:09:41;;;;;;;;;;;;;;;;;;3568090;40;19936;-69
2021/07/30 12:12:08;;;;;;;;;;;;;;;;;;3569577;40;20217;-69
2021/07/30 12:14:34;;;;;;;;;;;;;;;;;;3556553;40;19961;-70
2021/07/30 12:17:00;;;;;;;;;;;;;;;;;;3569705;40;20201;-69
2021/07/30 12:19:26;;;;;;;;;;;;;;;;;;3566020;40;19933;-69
2021/07/30 12:21:52;;;;;;;;;;;;;;;;;;3565160;40;19937;-69
2021/07/30 12:24:18;;;;;;;;;;;;;;;;;;3565830;40;20180;-68
2021/07/30 12:26:44;;;;;;;;;;;;;;;;;;3564548;40;19938;-69
2021/07/30 12:29:10;;;;;;;;;;;;;;;;;;3564571;40;20007;-68
2021/07/30 12:31:36;;;;;;;;;;;;;;;;;;3563480;40;19942;-69
2021/07/30 12:34:01;;;;;;;;;;;;;;;;;;3564348;40;20011;-68
2021/07/30 12:36:27;;;;;;;;;;;;;;;;;;3563052;40;20039;-68
2021/07/30 12:38:53;;;;;;;;;;;;;;;;;;3565234;40;20228;-68
2021/07/30 12:41:19;;;;;;;;;;;;;;;;;;3564585;40;20384;-68
2021/07/30 12:43:45;;;;;;;;;;;;;;;;;;3564700;40;19930;-68
2021/07/30 12:46:11;;;;;;;;;;;;;;;;;;3562481;40;19955;-68
2021/07/30 12:48:37;;;;;;;;;;;;;;;;;;3562579;40;19929;-69
2021/07/30 12:51:03;;;;;;;;;;;;;;;;;;3565477;40;20021;-68
2021/07/30 12:53:29;;;;;;;;;;;;;;;;;;3564844;40;19933;-69
2021/07/30 12:55:55;;;;;;;;;;;;;;;;;;3563682;40;20198;-68
2021/07/30 12:58:21;;;;;;;;;;;;;;;;;;3563870;40;19940;-68
2021/07/30 13:00:50;;;;;;;;;;;;;;;;;;3565732;40;19929;-67
2021/07/30 13:03:16;;;;;;;;;;;;;;;;;;3563304;40;20259;-68
2021/07/30 13:05:42;;;;;;;;;;;;;;;;;;3563524;40;20014;-68
2021/07/30 13:08:08;;;;;;;;;;;;;;;;;;3564993;40;20023;-68
2021/07/30 13:10:34;;;;;;;;;;;;;;;;;;3563758;40;19936;-67
2021/07/30 13:13:00;;;;;;;;;;;;;;;;;;3564266;40;19929;-67
2021/07/30 13:15:26;;;;;;;;;;;;;;;;;;3561872;40;20182;-68
2021/07/30 13:17:53;;;;;;;;;;;;;;;;;;3563966;40;19929;-67
2021/07/30 13:20:19;;;;;;;;;;;;;;;;;;3563586;40;19929;-67
2021/07/30 13:22:45;;;;;;;;;;;;;;;;;;3564050;40;20281;-68
2021/07/30 13:25:11;;;;;;;;;;;;;;;;;;3563870;40;19936;-67
2021/07/30 13:27:37;;;;;;;;;;;;;;;;;;3564313;40;19949;-68
2021/07/30 13:30:03;;;;;;;;;;;;;;;;;;3564210;40;19960;-68
2021/07/30 13:32:29;;;;;;;;;;;;;;;;;;3562791;40;19929;-69
2021/07/30 13:34:55;;;;;;;;;;;;;;;;;;3564644;40;19929;-68
2021/07/30 13:37:21;;;;;;;;;;;;;;;;;;3564753;40;19929;-67
2021/07/30 13:39:47;;;;;;;;;;;;;;;;;;3563440;40;19936;-67
2021/07/30 13:42:12;;;;;;;;;;;;;;;;;;3562269;40;19948;-67
2021/07/30 13:44:38;;;;;;;;;;;;;;;;;;3563573;40;19948;-67
2021/07/30 13:47:04;;;;;;;;;;;;;;;;;;3564573;40;20211;-67
2021/07/30 13:49:31;;;;;;;;;;;;;;;;;;3563534;40;19929;-67
2021/07/30 13:51:56;;;;;;;;;;;;;;;;;;3564189;40;19936;-67
2021/07/30 13:54:22;;;;;;;;;;;;;;;;;;3564838;40;20258;-67
2021/07/30 13:56:48;;;;;;;;;;;;;;;;;;3563257;40;19935;-68
2021/07/30 13:59:14;;;;;;;;;;;;;;;;;;3563687;40;19929;-67
2021/07/30 14:01:40;;;;;;;;;;;;;;;;;;3564211;40;19937;-68
2021/07/30 14:04:06;;;;;;;;;;;;;;;;;;3564444;40;19949;-67
2021/07/30 14:06:32;;;;;;;;;;;;;;;;;;3563838;40;19940;-68
2021/07/30 14:08:58;;;;;;;;;;;;;;;;;;3561765;40;19933;-68
2021/07/30 14:11:24;;;;;;;;;;;;;;;;;;3564445;40;20270;-67
2021/07/30 14:13:50;;;;;;;;;;;;;;;;;;3563066;40;19940;-69
2021/07/30 14:16:16;;;;;;;;;;;;;;;;;;3562978;40;20019;-68
2021/07/30 14:18:42;;;;;;;;;;;;;;;;;;3564947;40;19941;-68
2021/07/30 14:21:08;;;;;;;;;;;;;;;;;;3563202;40;19944;-68
2021/07/30 14:23:33;;;;;;;;;;;;;;;;;;3563129;40;19977;-68
2021/07/30 14:25:59;;;;;;;;;;;;;;;;;;3562181;40;20024;-69
2021/07/30 14:28:25;;;;;;;;;;;;;;;;;;3564780;40;19929;-69
2021/07/30 14:30:51;;;;;;;;;;;;;;;;;;3562291;40;19969;-68
2021/07/30 14:33:17;;;;;;;;;;;;;;;;;;3563308;40;19929;-68
2021/07/30 14:35:44;;;;;;;;;;;;;;;;;;3564230;40;19935;-68
2021/07/30 14:38:10;;;;;;;;;;;;;;;;;;3561429;40;19933;-68
2021/07/30 14:40:36;;;;;;;;;;;;;;;;;;3561541;40;19952;-68
2021/07/30 14:43:04;;;;;;;;;;;;;;;;;;3565349;40;19933;-68
2021/07/30 14:45:30;;;;;;;;;;;;;;;;;;3563232;40;20019;-69
2021/07/30 14:47:56;;;;;;;;;;;;;;;;;;3568039;40;19929;-68
2021/07/30 14:50:22;;;;;;;;;;;;;;;;;;3557355;40;19930;-68
2021/07/30 14:52:48;;;;;;;;;;;;;;;;;;3554950;40;20007;-67
2021/07/30 14:55:14;;;;;;;;;;;;;;;;;;3563205;40;19937;-67
2021/07/30 14:57:40;;;;;;;;;;;;;;;;;;3566350;40;19929;-67
2021/07/30 15:00:06;;;;;;;;;;;;;;;;;;3567207;40;19930;-68
2021/07/30 15:02:32;;;;;;;;;;;;;;;;;;3568366;40;19930;-68
2021/07/30 15:04:57;;;;;;;;;;;;;;;;;;3569424;40;19929;-67
2021/07/30 15:07:23;;;;;;;;;;;;;;;;;;3563415;40;19929;-68
2021/07/30 15:09:49;;;;;;;;;;;;;;;;;;3568672;40;20321;-67
2021/07/30 15:12:15;;;;;;;;;;;;;;;;;;3568698;40;20011;-69
2021/07/30 15:14:45;;;;;;;;;;;;;;;;;;3568073;40;19941;-69
2021/07/30 15:17:11;;;;;;;;;;;;;;;;;;3567831;40;19929;-68
2021/07/30 15:19:37;;;;;;;;;;;;;;;;;;3568828;40;19930;-69
2021/07/30 15:22:02;;;;;;;;;;;;;;;;;;3569095;40;19952;-69
2021/07/30 15:24:28;;;;;;;;;;;;;;;;;;3568972;40;20286;-70
2021/07/30 15:26:54;;;;;;;;;;;;;;;;;;3568955;40;19937;-69
2021/07/30 15:29:20;;;;;;;;;;;;;;;;;;3568901;40;19936;-69
2021/07/30 15:31:46;;;;;;;;;;;;;;;;;;3567857;40;19929;-69
2021/07/30 15:34:12;;;;;;;;;;;;;;;;;;3565316;40;19961;-69
2021/07/30 15:36:38;;;;;;;;;;;;;;;;;;3568104;40;19929;-70
2021/07/30 15:39:04;;;;;;;;;;;;;;;;;;3567824;40;20357;-69
2021/07/30 15:41:30;;;;;;;;;;;;;;;;;;3569323;40;19929;-69
2021/07/30 15:43:59;;;;;;;;;;;;;;;;;;3570875;40;19936;-69
2021/07/30 15:46:24;;;;;;;;;;;;;;;;;;3569473;40;20320;-69
2021/07/30 15:48:50;;;;;;;;;;;;;;;;;;3570211;40;19929;-68
2021/07/30 15:51:16;;;;;;;;;;;;;;;;;;3563278;40;19952;-69
2021/07/30 15:53:43;;;;;;;;;;;;;;;;;;3570002;40;19929;-69
2021/07/30 15:56:09;;;;;;;;;;;;;;;;;;3570121;40;20278;-69
2021/07/30 15:58:37;;;;;;;;;;;;;;;;;;3569257;40;19936;-68
2021/07/30 16:01:03;;;;;;;;;;;;;;;;;;3570376;40;19940;-69
2021/07/30 16:03:29;;;;;;;;;;;;;;;;;;3570150;40;19929;-68
2021/07/30 16:05:55;;;;;;;;;;;;;;;;;;3567388;40;19936;-69
2021/07/30 16:08:21;;;;;;;;;;;;;;;;;;3568484;40;19929;-68
2021/07/30 16:10:49;;;;;;;;;;;;;;;;;;3570091;40;19968;-68
2021/07/30 16:13:15;;;;;;;;;;;;;;;;;;3569940;40;19933;-69
2021/07/30 16:15:41;;;;;;;;;;;;;;;;;;3569719;40;19952;-69
2021/07/30 16:18:07;;;;;;;;;;;;;;;;;;3569984;40;19941;-69
2021/07/30 16:20:33;;;;;;;;;;;;;;;;;;3568381;40;20014;-68
2021/07/30 16:22:59;;;;;;;;;;;;;;;;;;3569247;40;19960;-69
2021/07/30 16:25:24;;;;;;;;;;;;;;;;;;3569231;40;19936;-69
2021/07/30 16:27:50;;;;;;;;;;;;;;;;;;3562921;40;19936;-69
2021/07/30 16:30:16;;;;;;;;;;;;;;;;;;3567632;40;19953;-69
2021/07/30 16:32:42;;;;;;;;;;;;;;;;;;3570058;40;19937;-68